createdAt,value
2023-05-08T04:36:01.431Z,2.76
2023-05-08T04:38:28.203Z,2.57
2023-05-08T04:40:54.921Z,2.45
2023-05-08T04:43:21.859Z,2.34
2023-05-08T04:45:48.803Z,2.23
2023-05-08T04:48:15.503Z,2.42
2023-05-08T04:50:42.189Z,2.52
2023-05-08T04:53:08.942Z,2.44
2023-05-08T04:55:35.663Z,2.58
2023-05-08T04:58:02.416Z,2.75
2023-05-08T05:00:29.127Z,3.17
2023-05-08T05:02:55.936Z,2.63
2023-05-08T05:05:22.841Z,2.50
2023-05-08T05:07:49.661Z,2.69
2023-05-08T05:10:16.640Z,2.54
2023-05-08T05:12:43.517Z,2.71
2023-05-08T05:15:10.955Z,2.60
2023-05-08T07:03:14.070Z,2.49
2023-05-08T07:05:40.976Z,2.20
2023-05-08T07:08:07.722Z,2.48
2023-05-08T07:10:34.548Z,2.25
2023-05-08T07:13:01.761Z,2.35
2023-05-08T07:15:28.670Z,2.17
2023-05-08T07:17:55.553Z,2.11
2023-05-08T07:20:22.335Z,2.26
2023-05-08T07:22:49.089Z,2.35
2023-05-08T07:25:15.893Z,2.23
2023-05-08T07:27:42.751Z,2.04
2023-05-08T07:30:09.924Z,2.27
2023-05-08T07:32:36.672Z,2.03
2023-05-08T07:35:03.552Z,2.25
2023-05-08T07:37:30.370Z,2.39
2023-05-08T07:39:57.101Z,2.40
2023-05-08T07:42:23.796Z,2.48
2023-05-08T07:44:54.833Z,2.46
2023-05-08T07:47:22.476Z,2.34
2023-05-08T07:49:49.376Z,2.24
2023-05-08T07:52:16.174Z,2.17
2023-05-08T07:54:42.907Z,2.40
2023-05-08T07:57:09.584Z,2.36
2023-05-08T07:59:36.360Z,2.29
2023-05-08T08:02:03.077Z,2.13
2023-05-08T08:04:30.113Z,2.22
2023-05-08T08:06:56.999Z,2.33
2023-05-08T08:09:23.765Z,2.35
2023-05-08T08:11:50.470Z,2.07
2023-05-08T08:14:17.300Z,2.11
2023-05-08T08:16:44.195Z,2.29
2023-05-08T08:19:11.008Z,2.15
2023-05-08T08:21:42.848Z,2.11
2023-05-08T08:24:09.656Z,2.19
2023-05-08T08:26:36.366Z,2.04
2023-05-08T08:29:03.073Z,2.20
2023-05-08T08:31:29.956Z,2.12
2023-05-08T08:33:56.685Z,2.14
2023-05-08T08:36:23.431Z,2.04
2023-05-08T08:38:50.257Z,1.98
2023-05-08T08:41:17.171Z,2.01
2023-05-08T08:43:43.943Z,2.05
2023-05-08T08:46:11.834Z,1.91
2023-05-08T08:48:38.533Z,1.79
2023-05-08T08:51:06.859Z,2.09
2023-05-08T08:53:35.699Z,1.94
2023-05-08T08:56:02.363Z,2.13
2023-05-08T08:58:33.666Z,2.26
2023-05-08T09:01:00.625Z,2.20
2023-05-08T09:03:27.529Z,2.03
2023-05-08T09:05:54.323Z,1.97
2023-05-08T09:08:21.266Z,2.01
2023-05-08T09:10:47.968Z,2.10
2023-05-08T09:13:15.525Z,2.05
2023-05-08T09:15:43.048Z,2.21
2023-05-08T09:18:09.849Z,2.17
2023-05-08T09:20:36.713Z,2.09
2023-05-08T09:23:03.421Z,2.07
2023-05-08T09:25:48.376Z,1.95
2023-05-08T09:28:22.048Z,2.19
2023-05-08T09:30:58.784Z,2.09
2023-05-08T09:33:29.140Z,2.25
2023-05-08T09:35:56.507Z,2.26
2023-05-08T09:38:36.091Z,2.09
2023-05-08T09:41:07.174Z,2.19
2023-05-08T09:43:33.935Z,2.15
2023-05-08T09:46:19.449Z,2.09
2023-05-08T09:48:46.378Z,2.45
2023-05-08T09:51:13.161Z,2.15
2023-05-08T09:53:39.993Z,2.18
2023-05-08T09:56:06.932Z,2.46
2023-05-08T09:58:44.021Z,2.85
2023-05-08T10:01:43.542Z,3.49
2023-05-08T10:04:10.353Z,4.36
2023-05-08T10:06:37.104Z,5.38
2023-05-08T10:09:42.668Z,5.46
2023-05-08T10:12:14.048Z,8.15
2023-05-08T10:14:40.865Z,26.21
2023-05-08T10:17:08.049Z,37.95
2023-05-08T10:19:34.873Z,45.33
2023-05-08T10:22:01.615Z,40.96
2023-05-08T10:24:32.651Z,37.13
2023-05-08T10:27:12.086Z,34.00
2023-05-08T10:29:47.473Z,32.70
2023-05-08T10:32:14.270Z,32.06
2023-05-08T10:34:41.220Z,31.95
2023-05-08T10:37:10.791Z,29.85
2023-05-08T10:39:37.585Z,28.37
2023-05-08T10:42:04.638Z,26.96
2023-05-08T10:44:31.455Z,26.90
2023-05-08T10:47:35.932Z,24.75
2023-05-08T10:50:39.882Z,24.57
2023-05-08T10:53:13.889Z,23.46
2023-05-08T10:55:40.636Z,22.50
2023-05-08T10:58:09.870Z,22.50
2023-05-08T11:00:57.817Z,21.64
2023-05-08T11:03:31.965Z,20.48
2023-05-08T11:06:00.219Z,19.80
2023-05-08T11:08:28.353Z,19.55
2023-05-08T11:11:00.539Z,18.06
2023-05-08T11:13:41.446Z,18.18
2023-05-08T11:16:08.204Z,18.09
2023-05-08T11:18:48.399Z,18.56
2023-05-08T11:21:18.380Z,17.62
2023-05-08T11:23:45.274Z,17.34
2023-05-08T11:26:15.226Z,16.37
2023-05-08T11:29:02.219Z,16.10
2023-05-08T11:31:50.925Z,15.26
2023-05-08T11:34:42.579Z,15.49
2023-05-08T11:37:17.813Z,14.08
2023-05-08T11:39:44.614Z,13.74
2023-05-08T11:42:26.515Z,14.26
2023-05-08T11:45:09.071Z,14.18
2023-05-08T11:47:37.472Z,13.60
2023-05-08T11:50:04.629Z,13.15
2023-05-08T11:52:35.559Z,12.78
2023-05-08T11:55:10.330Z,12.04
2023-05-08T11:57:37.248Z,12.15
2023-05-08T12:00:11.162Z,12.19
2023-05-08T12:02:42.147Z,11.40
2023-05-08T12:05:09.831Z,11.08
2023-05-08T12:07:43.457Z,11.07
2023-05-08T12:10:10.324Z,9.78
2023-05-08T12:12:40.597Z,6.48
2023-05-08T12:15:13.985Z,4.30
2023-05-08T12:17:41.440Z,4.26
2023-05-08T12:20:16.011Z,6.77
2023-05-08T12:22:43.707Z,7.58
2023-05-08T12:25:11.168Z,6.74
2023-05-08T12:27:38.312Z,6.89
2023-05-08T12:30:08.895Z,6.80
2023-05-08T12:32:36.906Z,6.54
2023-05-08T12:35:03.803Z,6.21
2023-05-08T12:37:30.526Z,5.65
2023-05-08T12:39:57.308Z,5.58
2023-05-08T12:42:50.297Z,5.98
2023-05-08T12:45:36.895Z,4.94
2023-05-08T12:48:05.017Z,5.64
2023-05-08T12:50:39.373Z,6.10
2023-05-08T12:53:10.619Z,5.48
2023-05-08T12:55:38.649Z,5.85
2023-05-08T12:58:10.567Z,5.00
2023-05-08T13:00:48.520Z,5.03
2023-05-08T13:03:23.063Z,5.76
2023-05-08T13:05:50.017Z,5.66
2023-05-08T13:08:16.805Z,6.03
2023-05-08T13:10:53.731Z,5.63
2023-05-08T13:13:24.775Z,5.75
2023-05-08T13:15:52.421Z,5.87
2023-05-08T13:18:19.502Z,5.93
2023-05-08T13:20:46.244Z,5.74
2023-05-08T13:23:13.318Z,5.79
2023-05-08T13:25:40.595Z,5.80
2023-05-08T13:28:08.325Z,5.18
2023-05-08T13:30:35.757Z,5.29
2023-05-08T13:33:02.962Z,5.64
2023-05-08T13:35:29.879Z,5.28
2023-05-08T13:37:57.223Z,5.51
2023-05-08T13:40:24.747Z,4.87
2023-05-08T13:42:51.830Z,4.99
2023-05-08T13:45:18.689Z,4.95
2023-05-08T13:47:46.189Z,4.26
2023-05-08T13:50:13.802Z,4.27
2023-05-08T13:52:40.722Z,4.98
2023-05-08T13:55:08.665Z,4.89
2023-05-08T13:57:35.615Z,5.12
2023-05-08T14:00:02.953Z,5.01
2023-05-08T14:02:30.024Z,4.80
2023-05-08T14:04:56.983Z,4.82
2023-05-08T14:07:23.720Z,4.65
2023-05-08T14:09:50.562Z,4.62
2023-05-08T14:12:17.363Z,4.62
2023-05-08T14:14:44.105Z,4.91
2023-05-08T14:17:10.852Z,4.96
2023-05-08T14:19:37.607Z,4.57
2023-05-08T14:22:04.517Z,4.83
2023-05-08T14:24:31.332Z,4.92
2023-05-08T14:26:58.130Z,4.35
2023-05-08T14:29:24.940Z,4.76
2023-05-08T14:31:51.708Z,4.44
2023-05-08T14:34:18.529Z,4.22
2023-05-08T14:36:45.285Z,4.46
2023-05-08T14:39:11.991Z,4.45
2023-05-08T14:41:38.707Z,3.92
2023-05-08T14:44:05.524Z,4.00
2023-05-08T14:46:32.363Z,3.93
2023-05-08T14:48:59.188Z,4.23
2023-05-08T14:51:25.998Z,3.92
2023-05-08T14:53:53.260Z,3.85
2023-05-08T14:56:20.201Z,3.81
2023-05-08T14:58:47.092Z,3.85
2023-05-08T15:01:13.878Z,3.90
2023-05-08T15:03:40.697Z,3.59
2023-05-08T15:06:07.558Z,3.45
2023-05-08T15:08:34.296Z,4.01
2023-05-08T15:11:01.033Z,3.68
2023-05-08T15:13:27.874Z,3.52
2023-05-08T15:15:54.731Z,3.54
2023-05-08T15:18:21.610Z,3.73
2023-05-08T15:20:51.377Z,3.37
2023-05-08T15:23:18.227Z,3.38
2023-05-08T15:25:45.074Z,3.43
2023-05-08T15:28:11.821Z,3.37
2023-05-08T15:30:38.519Z,3.35
2023-05-08T15:33:05.291Z,3.25
2023-05-08T15:35:32.169Z,3.32
2023-05-08T15:37:59.091Z,3.56
2023-05-08T15:40:25.882Z,3.37
2023-05-08T15:42:52.959Z,3.09
2023-05-08T15:45:19.869Z,3.11
2023-05-08T15:47:46.733Z,3.20
2023-05-08T15:50:13.575Z,3.05
2023-05-08T15:52:43.496Z,3.00
2023-05-08T15:55:10.421Z,2.93
2023-05-08T15:57:37.179Z,3.27
2023-05-08T16:00:04.539Z,3.05
2023-05-08T16:02:31.378Z,3.12
2023-05-08T16:04:58.272Z,2.86
2023-05-08T16:07:25.087Z,2.73
2023-05-08T16:09:51.901Z,2.79
2023-05-08T16:12:18.702Z,2.82
2023-05-08T16:14:45.480Z,3.07
2023-05-08T16:17:12.251Z,2.93
2023-05-08T16:19:39.406Z,2.66
2023-05-08T16:22:06.609Z,2.59
2023-05-08T16:24:33.447Z,2.70
2023-05-08T16:27:00.193Z,2.61
2023-05-08T16:29:26.859Z,2.83
2023-05-08T16:31:53.633Z,2.49
2023-05-08T16:34:20.595Z,2.56
2023-05-08T16:36:47.326Z,2.93
2023-05-08T16:39:14.132Z,2.88
2023-05-08T16:41:41.024Z,2.64
2023-05-08T16:44:07.826Z,2.97
2023-05-08T16:46:34.593Z,2.60
2023-05-08T16:49:01.466Z,2.85
2023-05-08T16:51:28.273Z,2.69
2023-05-08T16:53:56.119Z,2.75
2023-05-08T16:56:24.878Z,2.84
2023-05-08T16:58:51.572Z,2.78
2023-05-08T17:01:18.386Z,2.52
2023-05-08T17:03:45.117Z,2.56
2023-05-08T17:06:11.817Z,2.59
2023-05-08T17:08:38.598Z,2.38
2023-05-08T17:11:05.516Z,2.37
2023-05-08T17:13:32.330Z,2.57
2023-05-08T17:15:59.224Z,3.06
2023-05-08T17:18:26.078Z,3.73
2023-05-08T17:20:55.904Z,3.78
2023-05-08T17:23:23.205Z,3.60
2023-05-08T17:26:01.388Z,3.59
2023-05-08T17:28:36.412Z,3.39
2023-05-08T17:31:18.364Z,3.48
2023-05-08T17:33:54.234Z,3.64
2023-05-08T17:36:24.631Z,3.49
2023-05-08T17:38:55.914Z,3.49
2023-05-08T17:41:44.185Z,3.40
2023-05-08T17:44:26.335Z,3.33
2023-05-08T17:46:57.452Z,3.53
2023-05-08T17:49:24.875Z,3.09
2023-05-08T17:51:51.675Z,3.01
2023-05-08T17:54:24.147Z,3.24
2023-05-08T17:56:57.877Z,3.01
2023-05-08T17:59:24.724Z,2.94
2023-05-08T18:02:10.582Z,2.70
2023-05-08T18:04:43.862Z,2.24
2023-05-08T18:07:27.740Z,2.51
2023-05-08T18:09:54.689Z,2.81
2023-05-08T18:12:22.475Z,2.68
2023-05-08T18:14:56.576Z,2.83
2023-05-08T18:17:36.509Z,2.46
2023-05-08T18:20:04.349Z,2.56
2023-05-08T18:22:31.129Z,2.73
2023-05-08T18:25:02.295Z,2.69
2023-05-08T18:30:24.840Z,2.44
2023-05-08T18:32:52.858Z,2.50
2023-05-08T18:35:44.249Z,2.28
2023-05-08T18:38:15.347Z,2.31
2023-05-08T18:40:43.988Z,2.40
2023-05-08T18:43:16.090Z,2.36
2023-05-08T18:45:55.386Z,2.21
2023-05-08T18:48:42.765Z,2.16
2023-05-08T18:51:34.702Z,2.15
2023-05-08T18:54:05.765Z,2.30
2023-05-08T18:56:32.472Z,2.21
2023-05-08T18:59:07.340Z,2.22
2023-05-08T19:01:50.589Z,2.02
2023-05-08T19:04:31.414Z,2.17
2023-05-08T19:06:59.230Z,2.26
2023-05-08T19:09:26.058Z,2.21
2023-05-08T19:11:53.909Z,2.07
2023-05-08T19:14:30.327Z,2.09
2023-05-08T19:17:07.545Z,1.92
2023-05-08T19:19:34.559Z,1.82
2023-05-08T19:22:01.266Z,2.01
2023-05-08T19:24:28.157Z,2.17
2023-05-08T19:26:54.918Z,2.21
2023-05-08T19:29:21.978Z,2.03
2023-05-08T19:31:48.780Z,1.93
2023-05-08T19:34:15.600Z,1.95
2023-05-08T19:36:42.417Z,2.07
2023-05-08T19:39:09.150Z,1.95
2023-05-08T19:41:36.101Z,2.11
2023-05-08T19:44:04.045Z,2.03
2023-05-08T19:46:30.998Z,2.09
2023-05-08T19:48:57.753Z,2.05
2023-05-08T19:51:24.694Z,2.00
2023-05-08T19:53:51.493Z,2.01
2023-05-08T19:56:18.347Z,1.90
2023-05-08T19:58:45.232Z,1.98
2023-05-08T20:01:12.025Z,1.93
2023-05-08T20:03:38.980Z,1.89
2023-05-08T20:06:06.844Z,2.03
2023-05-08T20:08:33.537Z,1.89
2023-05-08T20:11:00.476Z,1.94
2023-05-08T20:13:27.346Z,2.09
2023-05-08T20:15:54.194Z,2.11
2023-05-08T20:18:20.979Z,1.96
2023-05-08T20:20:47.677Z,2.02
2023-05-08T20:23:14.507Z,2.10
2023-05-08T20:25:41.539Z,2.07
2023-05-08T20:28:08.323Z,1.98
2023-05-08T20:30:37.991Z,1.95
